createdAt,value
2019-06-26T00:01:08.470Z,47.15
2019-06-26T00:03:44.022Z,47.26
2019-06-26T00:06:18.531Z,46.64
2019-06-26T00:08:52.943Z,46.64
2019-06-26T00:11:27.278Z,46.53
2019-06-26T00:14:01.704Z,46.53
2019-06-26T00:16:36.289Z,46.62
2019-06-26T00:19:10.683Z,46.87
2019-06-26T00:21:43.683Z,47.35
2019-06-26T00:24:17.967Z,47.74
2019-06-26T00:26:52.339Z,46.45
2019-06-26T00:29:26.861Z,46.77
2019-06-26T00:31:59.805Z,46.90
2019-06-26T00:34:33.949Z,46.53
2019-06-26T00:37:08.350Z,46.54
2019-06-26T00:39:42.761Z,47.47
2019-06-26T00:42:15.796Z,47.62
2019-06-26T00:44:48.676Z,47.86
2019-06-26T00:47:22.943Z,47.86
2019-06-26T00:49:57.284Z,47.94
2019-06-26T00:52:32.736Z,48.00
2019-06-26T00:55:06.114Z,48.23
2019-06-26T00:57:40.328Z,48.64
2019-06-26T01:00:17.682Z,48.64
2019-06-26T01:02:50.630Z,48.36
2019-06-26T01:05:25.878Z,48.87
2019-06-26T01:08:00.273Z,48.87
2019-06-26T01:10:34.677Z,48.95
2019-06-26T01:13:07.679Z,49.09
2019-06-26T01:15:42.088Z,49.17
2019-06-26T01:18:16.580Z,49.62
2019-06-26T01:20:51.284Z,49.62
2019-06-26T01:23:27.215Z,49.63
2019-06-26T01:26:01.652Z,49.64
2019-06-26T01:28:35.950Z,49.78
2019-06-26T01:31:10.203Z,49.91
2019-06-26T01:33:44.660Z,49.91
2019-06-26T01:36:19.108Z,49.91
2019-06-26T01:38:53.666Z,50.02
2019-06-26T01:41:26.648Z,50.02
2019-06-26T01:44:13.553Z,50.07
2019-06-26T01:46:36.936Z,49.70
2019-06-26T01:49:11.259Z,50.01
2019-06-26T01:51:45.724Z,49.96
2019-06-26T01:54:20.311Z,49.91
2019-06-26T01:56:54.771Z,49.97
2019-06-26T01:59:27.866Z,50.08
2019-06-26T02:02:00.674Z,50.25
2019-06-26T02:04:34.928Z,50.37
2019-06-26T02:07:09.336Z,50.49
2019-06-26T02:09:43.877Z,50.63
2019-06-26T02:12:18.189Z,50.58
2019-06-26T02:14:52.633Z,50.81
2019-06-26T02:17:27.100Z,50.81
2019-06-26T02:20:01.442Z,50.82
2019-06-26T02:22:36.251Z,50.82
2019-06-26T02:27:15.330Z,50.93
2019-06-26T02:29:49.938Z,50.91
2019-06-26T02:32:24.270Z,51.04
2019-06-26T02:34:58.665Z,50.82
2019-06-26T02:37:33.274Z,51.08
2019-06-26T02:40:08.362Z,50.69
2019-06-26T02:42:42.942Z,51.35
2019-06-26T02:45:17.877Z,51.73
2019-06-26T02:47:52.285Z,51.73
2019-06-26T02:50:26.933Z,51.92
2019-06-26T02:53:01.262Z,51.94
2019-06-26T02:55:35.845Z,52.16
2019-06-26T02:58:10.276Z,52.46
2019-06-26T03:00:44.701Z,52.49
2019-06-26T03:03:18.652Z,52.77
2019-06-26T03:05:52.947Z,52.45
2019-06-26T03:08:27.274Z,52.36
2019-06-26T03:11:01.739Z,52.68
2019-06-26T03:13:34.714Z,52.80
2019-06-26T03:16:08.960Z,52.93
2019-06-26T03:20:02.424Z,53.03
2019-06-26T03:22:36.943Z,53.21
2019-06-26T03:25:11.319Z,53.09
2019-06-26T03:27:45.736Z,53.03
2019-06-26T03:30:20.276Z,53.26
2019-06-26T03:32:54.771Z,53.21
2019-06-26T03:35:29.095Z,51.95
2019-06-26T03:38:03.731Z,51.66
2019-06-26T03:40:36.860Z,52.60
2019-06-26T03:43:11.021Z,52.00
2019-06-26T03:45:45.394Z,51.32
2019-06-26T03:48:19.892Z,51.32
2019-06-26T03:50:54.101Z,50.76
2019-06-26T03:53:28.658Z,50.31
2019-06-26T03:58:37.648Z,50.58
2019-06-26T04:01:12.073Z,50.58
2019-06-26T04:03:46.727Z,50.32
2019-06-26T04:06:19.685Z,50.03
2019-06-26T04:08:54.117Z,50.14
2019-06-26T04:11:28.665Z,50.50
2019-06-26T04:14:01.761Z,50.06
2019-06-26T04:16:34.657Z,50.06
2019-06-26T04:19:08.890Z,50.02
2019-06-26T04:21:43.273Z,50.08
2019-06-26T04:24:17.669Z,50.30
2019-06-26T04:26:52.120Z,49.92
2019-06-26T04:29:26.638Z,49.99
2019-06-26T04:32:01.095Z,50.27
2019-06-26T04:34:35.318Z,49.90
2019-06-26T04:37:09.713Z,49.90
2019-06-26T04:39:42.685Z,50.19
2019-06-26T04:42:16.943Z,50.06
2019-06-26T04:44:51.305Z,49.94
2019-06-26T04:47:25.930Z,49.02
2019-06-26T04:50:00.300Z,49.25
2019-06-26T04:52:34.944Z,49.50
2019-06-26T04:55:09.344Z,49.54
2019-06-26T04:57:43.945Z,49.75
2019-06-26T05:00:21.611Z,49.63
2019-06-26T05:02:54.895Z,49.53
2019-06-26T05:05:39.200Z,49.32
2019-06-26T05:08:05.634Z,49.08
2019-06-26T05:10:40.125Z,49.08
2019-06-26T05:13:14.695Z,48.92
2019-06-26T05:18:31.268Z,48.56
2019-06-26T05:21:06.321Z,48.29
2019-06-26T05:23:40.739Z,48.14
2019-06-26T05:26:15.088Z,47.96
2019-06-26T05:28:49.653Z,47.57
2019-06-26T05:31:24.056Z,47.57
2019-06-26T05:33:58.735Z,47.40
2019-06-26T05:36:31.616Z,47.40
2019-06-26T05:41:07.312Z,47.31
2019-06-26T05:43:41.938Z,46.56
2019-06-26T05:46:29.935Z,46.99
2019-06-26T05:48:52.315Z,46.00
2019-06-26T05:51:26.849Z,46.00
2019-06-26T05:54:01.131Z,45.80
2019-06-26T05:56:35.678Z,45.61
2019-06-26T05:59:09.938Z,45.59
2019-06-26T06:01:44.272Z,45.44
2019-06-26T06:04:53.298Z,44.98
2019-06-26T06:07:28.277Z,44.38
2019-06-26T06:10:03.946Z,44.38
2019-06-26T06:12:38.406Z,43.53
2019-06-26T06:15:14.267Z,43.37
2019-06-26T06:17:48.749Z,43.35
2019-06-26T06:20:29.066Z,43.25
2019-06-26T06:23:03.280Z,42.89
2019-06-26T06:25:37.765Z,43.06
2019-06-26T06:28:10.849Z,42.93
2019-06-26T06:30:46.281Z,42.70
2019-06-26T06:33:22.646Z,42.63
2019-06-26T06:35:56.059Z,42.11
2019-06-26T06:38:30.640Z,41.89
2019-06-26T06:41:06.115Z,40.54
2019-06-26T06:43:40.612Z,40.09
2019-06-26T06:46:14.949Z,40.09
2019-06-26T06:48:49.275Z,40.14
2019-06-26T06:51:23.661Z,39.61
2019-06-26T06:53:57.938Z,39.15
2019-06-26T06:56:32.099Z,39.08
2019-06-26T06:59:06.576Z,37.52
2019-06-26T07:01:40.935Z,37.52
2019-06-26T07:04:15.068Z,38.00
2019-06-26T07:06:50.948Z,37.77
2019-06-26T07:09:25.294Z,37.77
2019-06-26T07:11:59.949Z,37.39
2019-06-26T07:14:34.581Z,37.05
2019-06-26T07:17:20.508Z,36.99
2019-06-26T07:19:46.690Z,36.82
2019-06-26T07:22:21.279Z,36.82
2019-06-26T07:24:57.657Z,36.13
2019-06-26T07:27:31.892Z,36.18
2019-06-26T07:30:06.758Z,36.33
2019-06-26T07:32:39.677Z,35.21
2019-06-26T07:35:16.271Z,34.20
2019-06-26T07:37:50.736Z,34.20
2019-06-26T07:40:23.643Z,34.67
2019-06-26T07:42:58.280Z,34.59
2019-06-26T07:45:32.694Z,34.72
2019-06-26T07:48:06.002Z,34.42
2019-06-26T07:50:40.321Z,32.83
2019-06-26T07:53:14.690Z,32.39
2019-06-26T07:55:47.850Z,32.55
2019-06-26T07:58:22.283Z,33.22
2019-06-26T08:00:56.754Z,32.33
2019-06-26T08:03:29.774Z,32.84
2019-06-26T08:06:04.274Z,31.93
2019-06-26T08:08:38.646Z,31.59
2019-06-26T08:11:12.864Z,31.59
2019-06-26T08:13:47.276Z,31.58
2019-06-26T08:16:22.681Z,31.43
2019-06-26T08:18:55.691Z,31.34
2019-06-26T08:21:29.945Z,31.59
2019-06-26T08:24:04.310Z,30.90
2019-06-26T08:26:38.704Z,31.14
2019-06-26T08:29:12.942Z,30.92
2019-06-26T08:31:47.131Z,30.96
2019-06-26T08:34:21.623Z,30.40
2019-06-26T08:36:55.954Z,30.40
2019-06-26T08:39:30.415Z,30.74
2019-06-26T08:42:04.950Z,30.84
2019-06-26T08:44:39.315Z,29.99
2019-06-26T08:47:13.883Z,29.99
2019-06-26T08:49:48.129Z,28.32
2019-06-26T08:52:22.954Z,28.32
2019-06-26T08:54:57.295Z,28.00
2019-06-26T08:57:31.885Z,27.69
2019-06-26T09:00:08.245Z,27.50
2019-06-26T09:02:42.744Z,26.93
2019-06-26T09:05:17.755Z,26.92
2019-06-26T09:07:50.834Z,27.19
2019-06-26T09:10:25.279Z,26.23
2019-06-26T09:15:48.645Z,25.79
2019-06-26T09:18:35.010Z,25.52
2019-06-26T09:20:57.364Z,25.52
2019-06-26T09:23:33.107Z,24.92
2019-06-26T09:26:07.608Z,25.10
2019-06-26T09:28:41.950Z,25.10
2019-06-26T09:31:16.286Z,24.28
2019-06-26T09:33:50.792Z,24.64
2019-06-26T09:36:26.265Z,23.58
2019-06-26T09:39:00.735Z,23.23
2019-06-26T09:41:36.671Z,22.96
2019-06-26T09:44:11.133Z,23.81
2019-06-26T09:46:45.950Z,23.08
2019-06-26T09:49:20.324Z,23.14
2019-06-26T09:51:54.686Z,22.68
2019-06-26T09:54:27.815Z,22.56
2019-06-26T09:57:01.938Z,23.15
2019-06-26T09:59:36.313Z,22.33
2019-06-26T10:02:10.961Z,22.68
2019-06-26T10:04:45.640Z,22.42
2019-06-26T10:07:19.898Z,22.42
2019-06-26T10:09:54.334Z,21.92
2019-06-26T10:12:29.272Z,22.08
2019-06-26T10:15:03.680Z,22.06
2019-06-26T10:17:36.716Z,21.64
2019-06-26T10:20:12.896Z,21.42
2019-06-26T10:22:47.275Z,21.67
2019-06-26T10:25:23.271Z,21.17
2019-06-26T10:27:58.149Z,20.88
2019-06-26T10:30:32.686Z,20.92
2019-06-26T10:33:05.695Z,21.30
2019-06-26T10:35:39.943Z,21.02
2019-06-26T10:38:14.344Z,20.19
2019-06-26T10:40:48.757Z,20.37
2019-06-26T10:43:22.658Z,20.24
2019-06-26T10:45:57.265Z,19.96
2019-06-26T10:48:31.683Z,19.62
2019-06-26T10:51:06.277Z,19.19
2019-06-26T10:53:40.688Z,18.97
2019-06-26T10:56:13.690Z,19.58
2019-06-26T10:58:48.095Z,19.58
2019-06-26T11:01:22.703Z,18.69
2019-06-26T11:03:55.733Z,18.51
2019-06-26T11:06:29.940Z,18.72
2019-06-26T11:09:04.335Z,18.32
2019-06-26T11:11:39.267Z,18.34
2019-06-26T11:14:13.769Z,18.62
2019-06-26T11:16:48.277Z,17.71
2019-06-26T11:19:22.947Z,17.47
2019-06-26T11:21:57.691Z,17.48
2019-06-26T11:24:32.249Z,17.30
2019-06-26T11:27:06.695Z,17.25
2019-06-26T11:29:41.548Z,16.88
2019-06-26T11:32:15.941Z,16.74
2019-06-26T11:34:50.358Z,16.55
2019-06-26T11:37:24.768Z,16.30
2019-06-26T11:39:59.105Z,16.92
2019-06-26T11:42:33.309Z,16.21
2019-06-26T11:45:08.589Z,16.21
2019-06-26T11:47:45.730Z,16.19
2019-06-26T11:50:19.280Z,16.45
2019-06-26T11:52:53.717Z,16.04
2019-06-26T11:55:27.010Z,16.42
2019-06-26T11:57:59.693Z,16.21
2019-06-26T12:00:33.945Z,16.12
2019-06-26T12:03:08.307Z,15.70
2019-06-26T12:05:42.703Z,15.70
2019-06-26T12:08:18.516Z,15.54
2019-06-26T12:10:53.283Z,15.51
2019-06-26T12:13:27.700Z,15.27
2019-06-26T12:16:04.949Z,15.24
2019-06-26T12:18:39.710Z,15.10
2019-06-26T12:21:12.827Z,15.10
2019-06-26T12:23:45.864Z,15.32
2019-06-26T12:26:19.949Z,15.12
2019-06-26T12:28:54.663Z,14.33
2019-06-26T12:31:28.048Z,14.33
2019-06-26T12:34:02.403Z,14.17
2019-06-26T12:36:37.307Z,14.40
2019-06-26T12:39:11.863Z,14.46
2019-06-26T12:41:46.337Z,13.91
2019-06-26T12:44:21.028Z,13.61
2019-06-26T12:46:55.714Z,13.76
2019-06-26T12:49:28.804Z,13.76
2019-06-26T12:52:01.710Z,14.22
2019-06-26T12:54:35.892Z,14.19
2019-06-26T12:57:10.286Z,14.19
2019-06-26T12:59:56.523Z,14.32
2019-06-26T13:02:19.675Z,14.70
2019-06-26T13:04:53.927Z,14.02
2019-06-26T13:07:28.267Z,13.81
2019-06-26T13:10:02.730Z,13.81
2019-06-26T13:12:37.235Z,13.86
2019-06-26T13:15:14.427Z,13.93
2019-06-26T13:17:49.046Z,13.88
2019-06-26T13:20:23.679Z,13.66
2019-06-26T13:22:58.115Z,13.66
2019-06-26T13:25:32.677Z,13.54
2019-06-26T13:28:05.650Z,13.61
2019-06-26T13:30:41.274Z,13.73
2019-06-26T13:33:15.696Z,13.73
2019-06-26T13:35:48.687Z,13.07
2019-06-26T13:38:21.614Z,13.33
2019-06-26T13:40:55.918Z,13.48
2019-06-26T13:43:30.308Z,13.83
2019-06-26T13:46:06.280Z,13.35
2019-06-26T13:48:40.920Z,13.23
2019-06-26T13:51:15.289Z,13.38
2019-06-26T13:53:49.750Z,13.11
2019-06-26T13:56:24.066Z,13.22
2019-06-26T13:58:58.361Z,12.78
2019-06-26T14:01:32.696Z,12.78
2019-06-26T14:05:09.734Z,12.76
2019-06-26T14:07:44.085Z,13.25
2019-06-26T14:10:18.721Z,13.51
2019-06-26T14:12:53.125Z,13.55
2019-06-26T14:18:08.870Z,13.97
2019-06-26T14:20:43.313Z,13.67
2019-06-26T14:23:17.754Z,13.67
2019-06-26T14:25:52.130Z,13.56
2019-06-26T14:28:26.696Z,13.67
2019-06-26T14:30:59.694Z,13.67
2019-06-26T14:33:36.762Z,14.03
2019-06-26T14:36:09.653Z,14.13
2019-06-26T14:38:43.953Z,14.10
2019-06-26T14:41:18.646Z,14.44
2019-06-26T14:43:53.125Z,14.44
2019-06-26T14:46:27.683Z,14.48
2019-06-26T14:49:00.648Z,14.48
2019-06-26T14:51:45.479Z,15.30
2019-06-26T14:54:10.952Z,15.89
2019-06-26T14:56:45.287Z,15.89
2019-06-26T14:59:19.721Z,16.55
2019-06-26T15:01:54.270Z,17.13
2019-06-26T15:04:28.691Z,17.87
2019-06-26T15:07:02.076Z,18.42
2019-06-26T15:09:36.702Z,18.42
2019-06-26T15:12:09.651Z,18.51
2019-06-26T15:16:53.312Z,19.20
2019-06-26T15:19:27.735Z,19.97
2019-06-26T15:22:02.282Z,20.44
2019-06-26T15:24:36.939Z,20.79
2019-06-26T15:27:11.297Z,21.50
2019-06-26T15:29:46.084Z,21.87
2019-06-26T15:32:20.718Z,22.12
2019-06-26T15:34:53.880Z,22.12
2019-06-26T15:37:26.660Z,22.14
2019-06-26T15:40:01.308Z,22.48
2019-06-26T15:42:35.946Z,22.48
2019-06-26T15:45:11.772Z,22.28
2019-06-26T15:47:44.992Z,22.28
2019-06-26T15:50:19.333Z,23.02
2019-06-26T15:52:53.881Z,23.16
2019-06-26T15:55:27.870Z,23.39
2019-06-26T15:58:02.111Z,23.83
2019-06-26T16:00:36.663Z,24.35
2019-06-26T16:03:10.934Z,24.35
2019-06-26T16:05:45.389Z,25.25
2019-06-26T16:08:19.941Z,25.25
2019-06-26T16:10:54.342Z,25.47
2019-06-26T16:13:28.902Z,25.69
2019-06-26T16:16:03.385Z,25.49
2019-06-26T16:18:45.313Z,25.66
2019-06-26T16:21:19.872Z,25.86
2019-06-26T16:23:54.275Z,25.84
2019-06-26T16:26:28.877Z,25.84
2019-06-26T16:29:03.307Z,25.99
2019-06-26T16:31:38.282Z,25.97
2019-06-26T16:34:12.683Z,25.81
2019-06-26T16:36:45.845Z,25.95
2019-06-26T16:39:18.792Z,26.50
2019-06-26T16:44:05.711Z,26.38
2019-06-26T16:46:38.820Z,26.29
2019-06-26T16:49:12.967Z,26.26
2019-06-26T16:51:47.710Z,26.16
2019-06-26T16:54:20.858Z,26.16
2019-06-26T16:56:53.669Z,26.21
2019-06-26T16:59:27.987Z,26.21
2019-06-26T17:02:02.329Z,25.56
2019-06-26T17:04:36.929Z,25.56
2019-06-26T17:07:11.297Z,25.47
2019-06-26T17:09:45.788Z,25.49
2019-06-26T17:12:18.859Z,25.91
2019-06-26T17:14:51.874Z,26.11
2019-06-26T17:17:26.294Z,26.15
2019-06-26T17:20:00.710Z,26.46
2019-06-26T17:22:34.799Z,26.55
2019-06-26T17:25:09.315Z,26.64
2019-06-26T17:27:43.957Z,26.82
2019-06-26T17:30:18.651Z,26.97
2019-06-26T17:32:53.292Z,27.32
2019-06-26T17:35:28.380Z,27.32
2019-06-26T17:38:03.698Z,27.15
2019-06-26T17:40:38.279Z,27.22
2019-06-26T17:43:13.141Z,27.21
2019-06-26T17:45:49.650Z,27.25
2019-06-26T17:48:23.377Z,27.45
2019-06-26T17:50:59.320Z,27.39
2019-06-26T17:53:34.313Z,27.41
2019-06-26T17:56:08.952Z,27.58
2019-06-26T17:58:43.290Z,27.58
2019-06-26T18:01:18.807Z,27.77
2019-06-26T18:03:53.291Z,27.99
2019-06-26T18:06:27.743Z,28.85
2019-06-26T18:09:02.123Z,29.16
2019-06-26T18:11:38.083Z,29.93
2019-06-26T18:14:12.711Z,30.38
2019-06-26T18:16:47.133Z,30.38
2019-06-26T18:19:21.715Z,30.61
2019-06-26T18:21:55.969Z,30.61
2019-06-26T18:24:30.691Z,30.92
2019-06-26T18:27:03.714Z,31.32
2019-06-26T18:29:43.315Z,31.28
2019-06-26T18:32:19.331Z,31.55
2019-06-26T18:34:53.955Z,31.79
2019-06-26T18:37:28.341Z,31.85
2019-06-26T18:40:02.801Z,32.37
2019-06-26T18:42:36.042Z,32.37
2019-06-26T18:45:10.361Z,32.18
2019-06-26T18:47:44.985Z,32.51
2019-06-26T18:50:19.634Z,32.91
2019-06-26T18:52:54.149Z,32.91
2019-06-26T18:55:28.726Z,32.96
2019-06-26T18:58:01.892Z,32.96
2019-06-26T19:00:34.806Z,33.17
2019-06-26T19:03:09.260Z,33.43
2019-06-26T19:05:43.719Z,33.55
2019-06-26T19:08:16.874Z,33.65
2019-06-26T19:10:51.117Z,33.78
2019-06-26T19:13:25.787Z,33.75
2019-06-26T19:16:00.167Z,33.99
2019-06-26T19:18:34.689Z,34.70
2019-06-26T19:21:09.138Z,34.70
2019-06-26T19:23:44.283Z,35.01
2019-06-26T19:26:18.778Z,35.33
2019-06-26T19:28:51.812Z,35.98
2019-06-26T19:31:26.090Z,36.21
2019-06-26T19:34:00.682Z,36.74
2019-06-26T19:36:49.132Z,36.74
2019-06-26T19:39:09.790Z,37.26
2019-06-26T19:41:44.134Z,37.38
2019-06-26T19:44:18.720Z,37.53
2019-06-26T19:46:51.692Z,37.53
2019-06-26T19:49:25.970Z,37.27
2019-06-26T19:52:00.366Z,37.59
2019-06-26T19:54:35.293Z,37.75
2019-06-26T19:57:09.953Z,37.91
2019-06-26T19:59:43.324Z,38.14
2019-06-26T20:02:17.783Z,38.17
2019-06-26T20:04:53.315Z,38.26
2019-06-26T20:07:28.796Z,38.42
2019-06-26T20:10:08.975Z,38.28
2019-06-26T20:12:44.524Z,38.03
2019-06-26T20:15:22.612Z,38.03
2019-06-26T20:17:59.607Z,37.82
2019-06-26T20:20:38.637Z,37.76
2019-06-26T20:23:12.914Z,37.41
2019-06-26T20:25:48.312Z,37.25
2019-06-26T20:28:24.363Z,37.47
2019-06-26T20:31:05.512Z,37.43
2019-06-26T20:33:42.659Z,37.49
2019-06-26T20:36:18.609Z,37.51
2019-06-26T20:38:55.996Z,37.72
2019-06-26T20:41:33.337Z,38.11
2019-06-26T20:44:13.720Z,38.11
2019-06-26T20:46:49.295Z,37.94
2019-06-26T20:49:25.431Z,37.94
2019-06-26T20:52:01.957Z,38.53
2019-06-26T20:54:37.995Z,38.54
2019-06-26T20:57:14.999Z,38.59
2019-06-26T20:59:50.714Z,38.57
2019-06-26T21:02:28.387Z,38.57
2019-06-26T21:05:04.785Z,38.46
2019-06-26T21:07:40.310Z,38.74
2019-06-26T21:10:19.309Z,38.74
2019-06-26T21:12:57.460Z,38.75
2019-06-26T21:15:34.528Z,38.82
2019-06-26T21:18:10.309Z,38.64
2019-06-26T21:20:47.549Z,38.65
2019-06-26T21:23:26.325Z,38.69
2019-06-26T21:26:02.333Z,38.85
2019-06-26T21:28:38.009Z,38.94
2019-06-26T21:31:12.722Z,39.04
2019-06-26T21:33:48.677Z,38.54
2019-06-26T21:36:25.475Z,38.54
2019-06-26T21:38:59.966Z,38.81
2019-06-26T21:41:36.284Z,38.81
2019-06-26T21:44:10.888Z,39.07
2019-06-26T21:46:45.271Z,39.12
2019-06-26T21:49:19.765Z,39.41
2019-06-26T21:51:52.862Z,39.42
2019-06-26T21:54:27.413Z,39.30
2019-06-26T21:57:19.989Z,39.84
2019-06-26T22:00:14.384Z,39.91
2019-06-26T22:03:07.279Z,39.91
2019-06-26T22:05:48.402Z,40.12
2019-06-26T22:08:30.646Z,40.33
2019-06-26T22:11:08.303Z,40.33
2019-06-26T22:13:43.131Z,40.47
2019-06-26T22:16:17.710Z,40.43
2019-06-26T22:18:50.882Z,40.75
2019-06-26T22:21:25.870Z,40.43
2019-06-26T22:24:00.272Z,40.38
2019-06-26T22:26:35.408Z,40.87
2019-06-26T22:29:10.270Z,40.95
2019-06-26T22:31:47.896Z,41.42
2019-06-26T22:34:22.345Z,41.42
2019-06-26T22:36:57.212Z,41.55
2019-06-26T22:39:31.992Z,41.92
2019-06-26T22:42:24.239Z,41.93
2019-06-26T22:45:17.275Z,41.29
2019-06-26T22:48:09.241Z,41.29
2019-06-26T22:51:01.814Z,41.48
2019-06-26T22:53:54.273Z,41.87
2019-06-26T22:56:48.869Z,42.16
2019-06-26T22:59:23.311Z,42.18
2019-06-26T23:01:57.891Z,42.03
2019-06-26T23:04:32.642Z,42.17
2019-06-26T23:07:06.976Z,42.17
2019-06-26T23:09:41.697Z,42.17
2019-06-26T23:12:14.803Z,42.15
2019-06-26T23:14:47.714Z,42.21
2019-06-26T23:17:22.146Z,42.28
2019-06-26T23:19:56.779Z,42.02
2019-06-26T23:22:29.860Z,42.02
2019-06-26T23:25:03.948Z,42.11
2019-06-26T23:27:38.686Z,42.18
2019-06-26T23:30:18.352Z,42.31
2019-06-26T23:32:52.893Z,42.41
2019-06-26T23:35:27.294Z,42.54
2019-06-26T23:38:01.785Z,42.54
2019-06-26T23:40:36.274Z,42.63
2019-06-26T23:43:10.720Z,42.63
2019-06-26T23:45:44.065Z,42.72
2019-06-26T23:48:18.324Z,42.72
2019-06-26T23:50:52.866Z,42.70
2019-06-26T23:53:27.328Z,43.06
2019-06-26T23:56:01.959Z,43.06
2019-06-26T23:58:36.677Z,43.06
